sensor_id;sensor_type;location;lat;lon;timestamp;temperature;humidity
48728;DHT22;34527;45.618;5.130;2024-01-16T00:00:15;0.80;99.90
48728;DHT22;34527;45.618;5.130;2024-01-16T00:02:40;0.80;99.90
48728;DHT22;34527;45.618;5.130;2024-01-16T00:05:06;0.80;99.90
48728;DHT22;34527;45.618;5.130;2024-01-16T00:07:32;0.80;99.90
48728;DHT22;34527;45.618;5.130;2024-01-16T00:10:00;0.80;99.90
48728;DHT22;34527;45.618;5.130;2024-01-16T00:12:25;0.80;99.90
48728;DHT22;34527;45.618;5.130;2024-01-16T00:14:51;0.80;99.90
48728;DHT22;34527;45.618;5.130;2024-01-16T00:17:16;0.80;99.90
48728;DHT22;34527;45.618;5.130;2024-01-16T00:19:42;0.70;99.90
48728;DHT22;34527;45.618;5.130;2024-01-16T00:22:08;0.70;99.90
48728;DHT22;34527;45.618;5.130;2024-01-16T00:24:33;0.70;99.90
48728;DHT22;34527;45.618;5.130;2024-01-16T00:26:59;0.80;99.90
48728;DHT22;34527;45.618;5.130;2024-01-16T00:29:24;0.80;99.90
48728;DHT22;34527;45.618;5.130;2024-01-16T00:31:50;0.80;99.90
48728;DHT22;34527;45.618;5.130;2024-01-16T00:34:16;0.70;99.90
48728;DHT22;34527;45.618;5.130;2024-01-16T00:36:41;0.70;99.90
48728;DHT22;34527;45.618;5.130;2024-01-16T00:39:07;0.60;99.90
48728;DHT22;34527;45.618;5.130;2024-01-16T00:41:33;0.70;99.90
48728;DHT22;34527;45.618;5.130;2024-01-16T00:43:59;0.70;99.90
48728;DHT22;34527;45.618;5.130;2024-01-16T00:46:24;0.70;99.90
48728;DHT22;34527;45.618;5.130;2024-01-16T00:48:50;0.70;99.90
48728;DHT22;34527;45.618;5.130;2024-01-16T00:51:15;0.70;99.90
48728;DHT22;34527;45.618;5.130;2024-01-16T00:53:42;0.70;99.90
48728;DHT22;34527;45.618;5.130;2024-01-16T00:56:07;0.80;99.90
48728;DHT22;34527;45.618;5.130;2024-01-16T00:58:33;0.80;99.90
48728;DHT22;34527;45.618;5.130;2024-01-16T01:00:59;0.70;99.90
48728;DHT22;34527;45.618;5.130;2024-01-16T01:03:24;0.90;99.90
48728;DHT22;34527;45.618;5.130;2024-01-16T01:05:50;1.00;99.90
48728;DHT22;34527;45.618;5.130;2024-01-16T01:08:16;0.90;99.90
48728;DHT22;34527;45.618;5.130;2024-01-16T01:10:42;0.90;99.90
48728;DHT22;34527;45.618;5.130;2024-01-16T01:13:07;0.80;99.90
48728;DHT22;34527;45.618;5.130;2024-01-16T01:15:33;0.90;99.90
48728;DHT22;34527;45.618;5.130;2024-01-16T01:17:59;0.90;99.90
48728;DHT22;34527;45.618;5.130;2024-01-16T01:20:24;0.80;99.90
48728;DHT22;34527;45.618;5.130;2024-01-16T01:22:51;0.80;99.90
48728;DHT22;34527;45.618;5.130;2024-01-16T01:25:16;0.80;99.90
48728;DHT22;34527;45.618;5.130;2024-01-16T01:27:42;0.80;99.90
48728;DHT22;34527;45.618;5.130;2024-01-16T01:30:08;0.90;99.90
48728;DHT22;34527;45.618;5.130;2024-01-16T01:32:37;0.90;99.90
48728;DHT22;34527;45.618;5.130;2024-01-16T01:35:03;0.90;99.90
48728;DHT22;34527;45.618;5.130;2024-01-16T01:37:29;0.80;99.90
48728;DHT22;34527;45.618;5.130;2024-01-16T01:39:54;0.80;99.90
48728;DHT22;34527;45.618;5.130;2024-01-16T01:42:32;0.80;99.90
48728;DHT22;34527;45.618;5.130;2024-01-16T01:44:57;0.80;99.90
48728;DHT22;34527;45.618;5.130;2024-01-16T01:47:24;0.80;99.90
48728;DHT22;34527;45.618;5.130;2024-01-16T01:49:50;0.80;99.90
48728;DHT22;34527;45.618;5.130;2024-01-16T01:52:16;0.80;99.90
48728;DHT22;34527;45.618;5.130;2024-01-16T01:54:43;0.80;99.90
48728;DHT22;34527;45.618;5.130;2024-01-16T01:57:09;0.80;99.90
48728;DHT22;34527;45.618;5.130;2024-01-16T01:59:35;0.80;99.90
48728;DHT22;34527;45.618;5.130;2024-01-16T02:02:03;0.80;99.90
48728;DHT22;34527;45.618;5.130;2024-01-16T02:04:31;0.70;99.90
48728;DHT22;34527;45.618;5.130;2024-01-16T02:06:57;0.70;99.90
48728;DHT22;34527;45.618;5.130;2024-01-16T02:09:23;0.60;99.90
48728;DHT22;34527;45.618;5.130;2024-01-16T02:11:50;0.70;99.90
48728;DHT22;34527;45.618;5.130;2024-01-16T02:14:16;0.60;99.90
48728;DHT22;34527;45.618;5.130;2024-01-16T02:16:42;0.70;99.90
48728;DHT22;34527;45.618;5.130;2024-01-16T02:19:09;0.60;99.90
48728;DHT22;34527;45.618;5.130;2024-01-16T02:21:46;0.70;99.90
48728;DHT22;34527;45.618;5.130;2024-01-16T02:24:13;0.70;99.90
48728;DHT22;34527;45.618;5.130;2024-01-16T02:26:39;0.60;99.90
48728;DHT22;34527;45.618;5.130;2024-01-16T02:29:04;0.60;99.90
48728;DHT22;34527;45.618;5.130;2024-01-16T02:31:31;0.80;99.90
48728;DHT22;34527;45.618;5.130;2024-01-16T02:33:56;0.80;99.90
48728;DHT22;34527;45.618;5.130;2024-01-16T02:36:23;0.70;99.90
48728;DHT22;34527;45.618;5.130;2024-01-16T02:38:48;0.70;99.90
48728;DHT22;34527;45.618;5.130;2024-01-16T02:41:15;0.70;99.90
48728;DHT22;34527;45.618;5.130;2024-01-16T02:43:41;0.60;99.90
48728;DHT22;34527;45.618;5.130;2024-01-16T02:46:07;0.50;99.90
48728;DHT22;34527;45.618;5.130;2024-01-16T02:48:34;0.50;99.90
48728;DHT22;34527;45.618;5.130;2024-01-16T02:51:00;0.40;99.90
48728;DHT22;34527;45.618;5.130;2024-01-16T02:53:25;0.40;99.90
48728;DHT22;34527;45.618;5.130;2024-01-16T02:55:52;0.40;99.90
48728;DHT22;34527;45.618;5.130;2024-01-16T02:58:18;0.40;99.90
48728;DHT22;34527;45.618;5.130;2024-01-16T03:00:43;0.60;99.90
48728;DHT22;34527;45.618;5.130;2024-01-16T03:03:10;0.60;99.90
48728;DHT22;34527;45.618;5.130;2024-01-16T03:05:36;0.40;99.90
48728;DHT22;34527;45.618;5.130;2024-01-16T03:08:02;0.40;99.90
48728;DHT22;34527;45.618;5.130;2024-01-16T03:10:27;0.40;99.90
48728;DHT22;34527;45.618;5.130;2024-01-16T03:12:53;0.40;99.90
48728;DHT22;34527;45.618;5.130;2024-01-16T03:15:18;0.60;99.90
48728;DHT22;34527;45.618;5.130;2024-01-16T03:17:44;0.50;99.90
48728;DHT22;34527;45.618;5.130;2024-01-16T03:20:10;0.30;99.90
48728;DHT22;34527;45.618;5.130;2024-01-16T03:22:36;0.30;99.90
48728;DHT22;34527;45.618;5.130;2024-01-16T03:25:01;0.30;99.90
48728;DHT22;34527;45.618;5.130;2024-01-16T03:27:28;0.30;99.90
48728;DHT22;34527;45.618;5.130;2024-01-16T03:29:53;0.30;99.90
48728;DHT22;34527;45.618;5.130;2024-01-16T03:32:19;0.20;99.90
48728;DHT22;34527;45.618;5.130;2024-01-16T03:34:44;0.10;99.90
48728;DHT22;34527;45.618;5.130;2024-01-16T03:37:10;0.10;99.90
48728;DHT22;34527;45.618;5.130;2024-01-16T03:39:36;0.00;99.90
48728;DHT22;34527;45.618;5.130;2024-01-16T03:42:01;0.00;99.90
48728;DHT22;34527;45.618;5.130;2024-01-16T03:44:27;0.00;99.90
48728;DHT22;34527;45.618;5.130;2024-01-16T03:46:52;0.10;99.90
48728;DHT22;34527;45.618;5.130;2024-01-16T03:49:18;0.00;99.90
48728;DHT22;34527;45.618;5.130;2024-01-16T03:51:44;0.00;99.90
48728;DHT22;34527;45.618;5.130;2024-01-16T03:54:12;0.00;99.90
48728;DHT22;34527;45.618;5.130;2024-01-16T03:56:39;0.00;99.90
48728;DHT22;34527;45.618;5.130;2024-01-16T03:59:05;0.00;99.90
48728;DHT22;34527;45.618;5.130;2024-01-16T04:01:33;0.10;99.90
48728;DHT22;34527;45.618;5.130;2024-01-16T04:04:02;0.00;99.90
48728;DHT22;34527;45.618;5.130;2024-01-16T04:06:28;-0.10;99.90
48728;DHT22;34527;45.618;5.130;2024-01-16T04:08:54;-0.10;99.90
48728;DHT22;34527;45.618;5.130;2024-01-16T04:11:20;0.20;99.90
48728;DHT22;34527;45.618;5.130;2024-01-16T04:13:45;0.20;99.90
48728;DHT22;34527;45.618;5.130;2024-01-16T04:16:12;0.30;99.90
48728;DHT22;34527;45.618;5.130;2024-01-16T04:18:40;0.20;99.90
48728;DHT22;34527;45.618;5.130;2024-01-16T04:21:08;0.10;99.90
48728;DHT22;34527;45.618;5.130;2024-01-16T04:23:34;0.10;99.90
48728;DHT22;34527;45.618;5.130;2024-01-16T04:26:00;0.30;99.90
48728;DHT22;34527;45.618;5.130;2024-01-16T04:28:26;0.30;99.90
48728;DHT22;34527;45.618;5.130;2024-01-16T04:30:52;0.40;99.90
48728;DHT22;34527;45.618;5.130;2024-01-16T04:33:17;0.30;99.90
48728;DHT22;34527;45.618;5.130;2024-01-16T04:35:43;0.30;99.90
48728;DHT22;34527;45.618;5.130;2024-01-16T04:38:08;0.20;99.90
48728;DHT22;34527;45.618;5.130;2024-01-16T04:40:34;0.10;99.90
48728;DHT22;34527;45.618;5.130;2024-01-16T04:43:00;0.20;99.90
48728;DHT22;34527;45.618;5.130;2024-01-16T04:45:26;0.30;99.90
48728;DHT22;34527;45.618;5.130;2024-01-16T04:47:51;0.30;99.90
48728;DHT22;34527;45.618;5.130;2024-01-16T04:50:18;0.30;99.90
48728;DHT22;34527;45.618;5.130;2024-01-16T04:52:44;0.40;99.90
48728;DHT22;34527;45.618;5.130;2024-01-16T04:55:10;0.40;99.90
48728;DHT22;34527;45.618;5.130;2024-01-16T04:57:35;0.40;99.90
48728;DHT22;34527;45.618;5.130;2024-01-16T05:00:01;0.20;99.90
48728;DHT22;34527;45.618;5.130;2024-01-16T05:02:35;0.10;99.90
48728;DHT22;34527;45.618;5.130;2024-01-16T05:05:00;0.00;99.90
48728;DHT22;34527;45.618;5.130;2024-01-16T05:07:26;0.10;99.90
48728;DHT22;34527;45.618;5.130;2024-01-16T05:09:52;-0.10;99.90
48728;DHT22;34527;45.618;5.130;2024-01-16T05:12:18;-0.10;99.90
48728;DHT22;34527;45.618;5.130;2024-01-16T05:14:43;-0.20;99.90
48728;DHT22;34527;45.618;5.130;2024-01-16T05:17:09;-0.30;99.90
48728;DHT22;34527;45.618;5.130;2024-01-16T05:19:34;-0.20;99.90
48728;DHT22;34527;45.618;5.130;2024-01-16T05:22:00;-0.20;99.90
48728;DHT22;34527;45.618;5.130;2024-01-16T05:24:25;-0.30;99.90
48728;DHT22;34527;45.618;5.130;2024-01-16T05:26:51;-0.10;99.90
48728;DHT22;34527;45.618;5.130;2024-01-16T05:29:18;0.00;99.90
48728;DHT22;34527;45.618;5.130;2024-01-16T05:31:44;-0.30;99.90
48728;DHT22;34527;45.618;5.130;2024-01-16T05:34:10;-0.20;99.90
48728;DHT22;34527;45.618;5.130;2024-01-16T05:36:35;-0.20;99.90
48728;DHT22;34527;45.618;5.130;2024-01-16T05:39:01;-0.10;99.90
48728;DHT22;34527;45.618;5.130;2024-01-16T05:41:31;0.00;99.90
48728;DHT22;34527;45.618;5.130;2024-01-16T05:43:57;-0.20;99.90
48728;DHT22;34527;45.618;5.130;2024-01-16T05:46:22;-0.10;99.90
48728;DHT22;34527;45.618;5.130;2024-01-16T05:48:48;0.00;99.90
48728;DHT22;34527;45.618;5.130;2024-01-16T05:51:14;-0.20;99.90
48728;DHT22;34527;45.618;5.130;2024-01-16T05:53:39;-0.20;99.90
48728;DHT22;34527;45.618;5.130;2024-01-16T05:56:05;-0.30;99.90
48728;DHT22;34527;45.618;5.130;2024-01-16T05:58:31;-0.30;99.90
48728;DHT22;34527;45.618;5.130;2024-01-16T06:01:00;-0.40;99.90
48728;DHT22;34527;45.618;5.130;2024-01-16T06:03:26;-0.40;99.90
48728;DHT22;34527;45.618;5.130;2024-01-16T06:05:52;-0.50;99.90
48728;DHT22;34527;45.618;5.130;2024-01-16T06:08:17;-0.40;99.90
48728;DHT22;34527;45.618;5.130;2024-01-16T06:10:45;-0.40;99.90
48728;DHT22;34527;45.618;5.130;2024-01-16T06:13:11;-0.50;99.90
48728;DHT22;34527;45.618;5.130;2024-01-16T06:15:36;-0.50;99.90
48728;DHT22;34527;45.618;5.130;2024-01-16T06:18:02;-0.60;99.90
48728;DHT22;34527;45.618;5.130;2024-01-16T06:20:28;-0.50;99.90
48728;DHT22;34527;45.618;5.130;2024-01-16T06:22:54;-0.50;99.90
48728;DHT22;34527;45.618;5.130;2024-01-16T06:25:20;-0.50;99.90
48728;DHT22;34527;45.618;5.130;2024-01-16T06:27:45;-0.60;99.90
48728;DHT22;34527;45.618;5.130;2024-01-16T06:30:11;-0.60;99.90
48728;DHT22;34527;45.618;5.130;2024-01-16T06:32:37;-0.50;99.90
48728;DHT22;34527;45.618;5.130;2024-01-16T06:35:02;-0.60;99.90
48728;DHT22;34527;45.618;5.130;2024-01-16T06:37:28;-0.50;99.90
48728;DHT22;34527;45.618;5.130;2024-01-16T06:39:54;-0.40;99.90
48728;DHT22;34527;45.618;5.130;2024-01-16T06:42:19;-0.40;99.90
48728;DHT22;34527;45.618;5.130;2024-01-16T06:44:45;-0.20;99.90
48728;DHT22;34527;45.618;5.130;2024-01-16T06:47:10;-0.10;99.90
48728;DHT22;34527;45.618;5.130;2024-01-16T06:49:36;-0.10;99.90
48728;DHT22;34527;45.618;5.130;2024-01-16T06:52:02;0.00;99.90
48728;DHT22;34527;45.618;5.130;2024-01-16T06:54:28;0.00;99.90
48728;DHT22;34527;45.618;5.130;2024-01-16T06:56:53;0.10;99.90
48728;DHT22;34527;45.618;5.130;2024-01-16T06:59:19;0.10;99.90
48728;DHT22;34527;45.618;5.130;2024-01-16T07:01:46;0.10;99.90
48728;DHT22;34527;45.618;5.130;2024-01-16T07:04:12;0.10;99.90
48728;DHT22;34527;45.618;5.130;2024-01-16T07:06:39;-0.20;99.90
48728;DHT22;34527;45.618;5.130;2024-01-16T07:09:05;-0.40;99.90
48728;DHT22;34527;45.618;5.130;2024-01-16T07:11:31;-0.30;99.90
48728;DHT22;34527;45.618;5.130;2024-01-16T07:13:56;-0.20;99.90
48728;DHT22;34527;45.618;5.130;2024-01-16T07:16:22;0.00;99.90
48728;DHT22;34527;45.618;5.130;2024-01-16T07:18:48;0.00;99.90
48728;DHT22;34527;45.618;5.130;2024-01-16T07:21:20;-0.20;99.90
48728;DHT22;34527;45.618;5.130;2024-01-16T07:23:46;-0.30;99.90
48728;DHT22;34527;45.618;5.130;2024-01-16T07:26:12;-0.30;99.90
48728;DHT22;34527;45.618;5.130;2024-01-16T07:28:38;-0.40;99.90
48728;DHT22;34527;45.618;5.130;2024-01-16T07:31:04;-0.30;99.90
48728;DHT22;34527;45.618;5.130;2024-01-16T07:33:30;-0.20;99.90
48728;DHT22;34527;45.618;5.130;2024-01-16T07:35:56;-0.10;99.90
48728;DHT22;34527;45.618;5.130;2024-01-16T07:38:22;-0.20;99.90
48728;DHT22;34527;45.618;5.130;2024-01-16T07:40:47;-0.10;99.90
48728;DHT22;34527;45.618;5.130;2024-01-16T07:43:13;0.00;99.90
48728;DHT22;34527;45.618;5.130;2024-01-16T07:45:39;-0.10;99.90
48728;DHT22;34527;45.618;5.130;2024-01-16T07:48:04;-0.10;99.90
48728;DHT22;34527;45.618;5.130;2024-01-16T07:50:30;-0.10;99.90
48728;DHT22;34527;45.618;5.130;2024-01-16T07:52:55;0.00;99.90
48728;DHT22;34527;45.618;5.130;2024-01-16T07:55:21;0.10;99.90
48728;DHT22;34527;45.618;5.130;2024-01-16T07:57:47;0.00;99.90
48728;DHT22;34527;45.618;5.130;2024-01-16T08:00:12;0.10;99.90
48728;DHT22;34527;45.618;5.130;2024-01-16T08:02:38;0.00;99.90
48728;DHT22;34527;45.618;5.130;2024-01-16T08:05:04;0.00;99.90
48728;DHT22;34527;45.618;5.130;2024-01-16T08:07:30;0.00;99.90
48728;DHT22;34527;45.618;5.130;2024-01-16T08:09:57;0.10;99.90
48728;DHT22;34527;45.618;5.130;2024-01-16T08:12:22;0.00;99.90
48728;DHT22;34527;45.618;5.130;2024-01-16T08:14:48;0.00;99.90
48728;DHT22;34527;45.618;5.130;2024-01-16T08:17:14;0.00;99.90
48728;DHT22;34527;45.618;5.130;2024-01-16T08:19:40;0.00;99.90
48728;DHT22;34527;45.618;5.130;2024-01-16T08:22:06;0.10;99.90
48728;DHT22;34527;45.618;5.130;2024-01-16T08:24:32;0.20;99.90
48728;DHT22;34527;45.618;5.130;2024-01-16T08:26:57;0.20;99.90
48728;DHT22;34527;45.618;5.130;2024-01-16T08:29:24;0.30;99.90
48728;DHT22;34527;45.618;5.130;2024-01-16T08:31:50;0.20;99.90
48728;DHT22;34527;45.618;5.130;2024-01-16T08:34:17;0.30;99.90
48728;DHT22;34527;45.618;5.130;2024-01-16T08:36:44;0.20;99.90
48728;DHT22;34527;45.618;5.130;2024-01-16T08:39:09;0.30;99.90
48728;DHT22;34527;45.618;5.130;2024-01-16T08:41:35;0.30;99.90
48728;DHT22;34527;45.618;5.130;2024-01-16T08:44:01;0.40;99.90
48728;DHT22;34527;45.618;5.130;2024-01-16T08:46:27;0.40;99.90
48728;DHT22;34527;45.618;5.130;2024-01-16T08:48:52;0.40;99.90
48728;DHT22;34527;45.618;5.130;2024-01-16T08:51:18;0.40;99.90
48728;DHT22;34527;45.618;5.130;2024-01-16T08:53:44;0.30;99.90
48728;DHT22;34527;45.618;5.130;2024-01-16T08:56:09;0.20;99.90
48728;DHT22;34527;45.618;5.130;2024-01-16T08:58:38;0.30;99.90
48728;DHT22;34527;45.618;5.130;2024-01-16T09:01:04;0.40;99.90
48728;DHT22;34527;45.618;5.130;2024-01-16T09:03:33;0.50;99.90
48728;DHT22;34527;45.618;5.130;2024-01-16T09:06:00;0.60;99.90
48728;DHT22;34527;45.618;5.130;2024-01-16T09:08:26;0.70;99.90
48728;DHT22;34527;45.618;5.130;2024-01-16T09:10:55;0.80;99.90
48728;DHT22;34527;45.618;5.130;2024-01-16T09:13:21;0.80;99.90
48728;DHT22;34527;45.618;5.130;2024-01-16T09:15:48;0.80;99.90
48728;DHT22;34527;45.618;5.130;2024-01-16T09:18:15;0.60;99.90
48728;DHT22;34527;45.618;5.130;2024-01-16T09:20:42;0.60;99.90
48728;DHT22;34527;45.618;5.130;2024-01-16T09:23:07;0.60;99.90
48728;DHT22;34527;45.618;5.130;2024-01-16T09:25:34;0.60;99.90
48728;DHT22;34527;45.618;5.130;2024-01-16T09:28:00;0.60;99.90
48728;DHT22;34527;45.618;5.130;2024-01-16T09:30:26;0.60;99.90
48728;DHT22;34527;45.618;5.130;2024-01-16T09:32:51;0.70;99.90
48728;DHT22;34527;45.618;5.130;2024-01-16T09:35:17;0.80;99.90
48728;DHT22;34527;45.618;5.130;2024-01-16T09:37:43;0.90;99.90
48728;DHT22;34527;45.618;5.130;2024-01-16T09:40:09;0.90;99.90
48728;DHT22;34527;45.618;5.130;2024-01-16T09:42:35;0.90;99.90
48728;DHT22;34527;45.618;5.130;2024-01-16T09:45:02;0.90;99.90
48728;DHT22;34527;45.618;5.130;2024-01-16T09:47:30;0.90;99.90
48728;DHT22;34527;45.618;5.130;2024-01-16T09:49:58;0.90;99.90
48728;DHT22;34527;45.618;5.130;2024-01-16T09:52:25;0.90;99.90
48728;DHT22;34527;45.618;5.130;2024-01-16T09:54:51;0.80;99.90
48728;DHT22;34527;45.618;5.130;2024-01-16T09:57:19;0.70;99.90
48728;DHT22;34527;45.618;5.130;2024-01-16T09:59:48;0.70;99.90
48728;DHT22;34527;45.618;5.130;2024-01-16T10:02:14;0.80;99.90
48728;DHT22;34527;45.618;5.130;2024-01-16T10:04:41;0.90;99.90
48728;DHT22;34527;45.618;5.130;2024-01-16T10:07:08;0.90;99.90
48728;DHT22;34527;45.618;5.130;2024-01-16T10:09:35;0.90;99.90
48728;DHT22;34527;45.618;5.130;2024-01-16T10:12:01;0.90;99.90
48728;DHT22;34527;45.618;5.130;2024-01-16T10:14:28;1.00;99.90
48728;DHT22;34527;45.618;5.130;2024-01-16T10:17:03;1.10;99.90
48728;DHT22;34527;45.618;5.130;2024-01-16T10:19:34;1.10;99.90
48728;DHT22;34527;45.618;5.130;2024-01-16T10:22:03;1.10;99.90
48728;DHT22;34527;45.618;5.130;2024-01-16T10:24:29;1.20;99.90
48728;DHT22;34527;45.618;5.130;2024-01-16T10:26:59;1.10;99.90
48728;DHT22;34527;45.618;5.130;2024-01-16T10:29:26;1.20;99.90
48728;DHT22;34527;45.618;5.130;2024-01-16T10:31:52;1.10;99.90
48728;DHT22;34527;45.618;5.130;2024-01-16T10:34:22;1.20;99.90
48728;DHT22;34527;45.618;5.130;2024-01-16T10:36:50;1.30;99.90
48728;DHT22;34527;45.618;5.130;2024-01-16T10:39:16;1.30;99.90
48728;DHT22;34527;45.618;5.130;2024-01-16T10:41:41;1.40;99.90
48728;DHT22;34527;45.618;5.130;2024-01-16T10:44:08;1.20;99.90
48728;DHT22;34527;45.618;5.130;2024-01-16T10:46:34;1.40;99.90
48728;DHT22;34527;45.618;5.130;2024-01-16T10:49:02;1.40;99.90
48728;DHT22;34527;45.618;5.130;2024-01-16T10:51:28;1.40;99.90
48728;DHT22;34527;45.618;5.130;2024-01-16T10:53:58;1.30;99.90
48728;DHT22;34527;45.618;5.130;2024-01-16T10:56:24;1.40;99.90
48728;DHT22;34527;45.618;5.130;2024-01-16T10:59:06;1.50;99.90
48728;DHT22;34527;45.618;5.130;2024-01-16T11:01:35;1.40;99.90
48728;DHT22;34527;45.618;5.130;2024-01-16T11:04:01;1.10;99.90
48728;DHT22;34527;45.618;5.130;2024-01-16T11:06:28;1.30;99.90
48728;DHT22;34527;45.618;5.130;2024-01-16T11:08:56;1.50;99.90
48728;DHT22;34527;45.618;5.130;2024-01-16T11:11:23;1.50;99.90
48728;DHT22;34527;45.618;5.130;2024-01-16T11:13:51;1.60;99.90
48728;DHT22;34527;45.618;5.130;2024-01-16T11:16:17;1.60;99.90
48728;DHT22;34527;45.618;5.130;2024-01-16T11:18:44;1.70;99.90
48728;DHT22;34527;45.618;5.130;2024-01-16T11:21:12;1.70;99.90
48728;DHT22;34527;45.618;5.130;2024-01-16T11:23:39;1.40;99.90
48728;DHT22;34527;45.618;5.130;2024-01-16T11:26:27;1.50;99.90
48728;DHT22;34527;45.618;5.130;2024-01-16T11:28:56;1.60;99.90
48728;DHT22;34527;45.618;5.130;2024-01-16T11:31:33;1.70;99.90
48728;DHT22;34527;45.618;5.130;2024-01-16T11:34:00;1.70;99.90
48728;DHT22;34527;45.618;5.130;2024-01-16T11:36:52;1.70;99.90
48728;DHT22;34527;45.618;5.130;2024-01-16T11:39:25;1.70;99.90
48728;DHT22;34527;45.618;5.130;2024-01-16T11:41:58;1.80;99.90
48728;DHT22;34527;45.618;5.130;2024-01-16T11:44:45;1.80;99.90
48728;DHT22;34527;45.618;5.130;2024-01-16T11:47:23;1.90;99.90
48728;DHT22;34527;45.618;5.130;2024-01-16T11:49:51;1.90;99.90
48728;DHT22;34527;45.618;5.130;2024-01-16T11:52:42;2.00;99.90
48728;DHT22;34527;45.618;5.130;2024-01-16T11:55:31;2.10;99.90
48728;DHT22;34527;45.618;5.130;2024-01-16T11:58:21;2.10;99.90
48728;DHT22;34527;45.618;5.130;2024-01-16T12:00:52;2.20;99.90
48728;DHT22;34527;45.618;5.130;2024-01-16T12:03:21;2.20;99.90
48728;DHT22;34527;45.618;5.130;2024-01-16T12:06:00;2.30;99.90
48728;DHT22;34527;45.618;5.130;2024-01-16T12:08:26;2.40;99.90
48728;DHT22;34527;45.618;5.130;2024-01-16T12:10:52;2.40;99.90
48728;DHT22;34527;45.618;5.130;2024-01-16T12:13:18;2.50;99.90
48728;DHT22;34527;45.618;5.130;2024-01-16T12:15:44;2.50;99.90
48728;DHT22;34527;45.618;5.130;2024-01-16T12:18:09;2.40;99.90
48728;DHT22;34527;45.618;5.130;2024-01-16T12:20:36;2.30;99.90
48728;DHT22;34527;45.618;5.130;2024-01-16T12:23:06;2.40;99.90
48728;DHT22;34527;45.618;5.130;2024-01-16T12:25:36;2.20;99.90
48728;DHT22;34527;45.618;5.130;2024-01-16T12:28:05;2.30;99.90
48728;DHT22;34527;45.618;5.130;2024-01-16T12:30:33;2.40;99.90
48728;DHT22;34527;45.618;5.130;2024-01-16T12:35:37;2.50;99.90
48728;DHT22;34527;45.618;5.130;2024-01-16T12:38:04;2.50;99.90
48728;DHT22;34527;45.618;5.130;2024-01-16T12:40:37;2.50;99.90
48728;DHT22;34527;45.618;5.130;2024-01-16T12:43:05;2.50;99.90
48728;DHT22;34527;45.618;5.130;2024-01-16T12:45:32;2.60;99.90
48728;DHT22;34527;45.618;5.130;2024-01-16T12:47:59;2.50;99.90
48728;DHT22;34527;45.618;5.130;2024-01-16T12:50:27;2.60;99.90
48728;DHT22;34527;45.618;5.130;2024-01-16T12:53:07;2.60;99.90
48728;DHT22;34527;45.618;5.130;2024-01-16T12:55:35;2.50;99.90
48728;DHT22;34527;45.618;5.130;2024-01-16T13:00:38;2.50;99.90
48728;DHT22;34527;45.618;5.130;2024-01-16T13:03:07;2.50;99.90
48728;DHT22;34527;45.618;5.130;2024-01-16T13:05:33;2.60;99.90
48728;DHT22;34527;45.618;5.130;2024-01-16T13:08:02;2.70;99.90
48728;DHT22;34527;45.618;5.130;2024-01-16T13:10:31;2.70;99.90
48728;DHT22;34527;45.618;5.130;2024-01-16T13:13:15;2.60;99.90
48728;DHT22;34527;45.618;5.130;2024-01-16T13:15:42;2.50;99.90
48728;DHT22;34527;45.618;5.130;2024-01-16T13:18:22;2.50;99.90
48728;DHT22;34527;45.618;5.130;2024-01-16T13:20:49;2.70;99.90
48728;DHT22;34527;45.618;5.130;2024-01-16T13:23:16;2.70;99.90
48728;DHT22;34527;45.618;5.130;2024-01-16T13:25:45;2.60;99.90
48728;DHT22;34527;45.618;5.130;2024-01-16T13:28:19;2.70;99.90
48728;DHT22;34527;45.618;5.130;2024-01-16T13:30:46;2.70;99.90
48728;DHT22;34527;45.618;5.130;2024-01-16T13:33:13;2.80;99.90
48728;DHT22;34527;45.618;5.130;2024-01-16T13:35:43;2.80;99.90
48728;DHT22;34527;45.618;5.130;2024-01-16T13:38:09;2.90;99.90
48728;DHT22;34527;45.618;5.130;2024-01-16T13:40:36;2.90;99.90
48728;DHT22;34527;45.618;5.130;2024-01-16T13:43:03;3.00;99.90
48728;DHT22;34527;45.618;5.130;2024-01-16T13:45:29;3.00;99.90
48728;DHT22;34527;45.618;5.130;2024-01-16T13:47:56;3.00;99.90
48728;DHT22;34527;45.618;5.130;2024-01-16T13:50:22;3.00;99.90
48728;DHT22;34527;45.618;5.130;2024-01-16T13:52:48;3.10;99.90
48728;DHT22;34527;45.618;5.130;2024-01-16T13:55:13;3.10;99.90
48728;DHT22;34527;45.618;5.130;2024-01-16T13:57:39;2.90;99.90
48728;DHT22;34527;45.618;5.130;2024-01-16T14:00:07;2.90;99.90
48728;DHT22;34527;45.618;5.130;2024-01-16T14:02:47;3.00;99.90
48728;DHT22;34527;45.618;5.130;2024-01-16T14:05:15;3.10;99.90
48728;DHT22;34527;45.618;5.130;2024-01-16T14:07:43;3.10;99.90
48728;DHT22;34527;45.618;5.130;2024-01-16T14:10:12;3.20;99.90
48728;DHT22;34527;45.618;5.130;2024-01-16T14:12:42;3.10;99.90
48728;DHT22;34527;45.618;5.130;2024-01-16T14:15:09;3.10;99.90
48728;DHT22;34527;45.618;5.130;2024-01-16T14:17:42;3.20;99.90
48728;DHT22;34527;45.618;5.130;2024-01-16T14:20:10;3.20;99.90
48728;DHT22;34527;45.618;5.130;2024-01-16T14:22:36;3.20;99.90
48728;DHT22;34527;45.618;5.130;2024-01-16T14:25:03;3.10;99.90
48728;DHT22;34527;45.618;5.130;2024-01-16T14:27:42;3.10;99.90
48728;DHT22;34527;45.618;5.130;2024-01-16T14:30:13;3.10;99.90
48728;DHT22;34527;45.618;5.130;2024-01-16T14:32:45;3.20;99.90
48728;DHT22;34527;45.618;5.130;2024-01-16T14:35:12;3.20;99.90
48728;DHT22;34527;45.618;5.130;2024-01-16T14:37:38;3.30;99.90
48728;DHT22;34527;45.618;5.130;2024-01-16T14:40:05;3.30;99.90
48728;DHT22;34527;45.618;5.130;2024-01-16T14:42:39;3.30;99.90
48728;DHT22;34527;45.618;5.130;2024-01-16T14:45:05;3.30;99.90
48728;DHT22;34527;45.618;5.130;2024-01-16T14:47:31;3.30;99.90
48728;DHT22;34527;45.618;5.130;2024-01-16T14:49:57;3.40;99.90
48728;DHT22;34527;45.618;5.130;2024-01-16T14:52:23;3.40;99.90
48728;DHT22;34527;45.618;5.130;2024-01-16T14:54:48;3.50;99.90
48728;DHT22;34527;45.618;5.130;2024-01-16T14:57:15;3.50;99.90
48728;DHT22;34527;45.618;5.130;2024-01-16T14:59:41;3.40;99.90
48728;DHT22;34527;45.618;5.130;2024-01-16T15:02:07;3.30;99.90
48728;DHT22;34527;45.618;5.130;2024-01-16T15:04:41;3.40;99.90
48728;DHT22;34527;45.618;5.130;2024-01-16T15:07:08;3.40;99.90
48728;DHT22;34527;45.618;5.130;2024-01-16T15:09:33;3.50;99.90
48728;DHT22;34527;45.618;5.130;2024-01-16T15:12:06;3.50;99.90
48728;DHT22;34527;45.618;5.130;2024-01-16T15:14:33;3.50;99.90
48728;DHT22;34527;45.618;5.130;2024-01-16T15:16:59;3.60;99.90
48728;DHT22;34527;45.618;5.130;2024-01-16T15:19:25;3.60;99.90
48728;DHT22;34527;45.618;5.130;2024-01-16T15:21:51;3.70;99.90
48728;DHT22;34527;45.618;5.130;2024-01-16T15:24:17;3.80;99.90
48728;DHT22;34527;45.618;5.130;2024-01-16T15:26:52;3.70;99.90
48728;DHT22;34527;45.618;5.130;2024-01-16T15:29:18;3.70;99.90
48728;DHT22;34527;45.618;5.130;2024-01-16T15:31:44;3.70;99.90
48728;DHT22;34527;45.618;5.130;2024-01-16T15:34:10;3.70;99.90
48728;DHT22;34527;45.618;5.130;2024-01-16T15:36:35;3.70;99.90
48728;DHT22;34527;45.618;5.130;2024-01-16T15:39:01;3.70;99.90
48728;DHT22;34527;45.618;5.130;2024-01-16T15:41:27;3.60;99.90
48728;DHT22;34527;45.618;5.130;2024-01-16T15:43:53;3.50;99.90
48728;DHT22;34527;45.618;5.130;2024-01-16T15:46:18;3.50;99.90
48728;DHT22;34527;45.618;5.130;2024-01-16T15:48:44;3.50;99.90